This is the latest recevied weather packets stored in our database for station/object KN6ZYR. If no packets are shown the sender has not sent any weather packets the latest 10 day(s).
| Time | Temp. | Humidity | Pressure | Rain* | Wind** | Luminosity | Snow |
|---|---|---|---|---|---|---|---|
| 1777922011 | 21.67° C | 23% | 1012.2 hPa | 0 mm | - | 738 W/m² | - |
| 1777921706 | 20.56° C | 25% | 1012.4 hPa | 0 mm | - | 731 W/m² | - |
| 1777921402 | 20° C | 28% | 1012.2 hPa | 0 mm | - | 593 W/m² | - |
| 1777921099 | 20.56° C | 27% | 1012.6 hPa | 0 mm | - | 934 W/m² | - |
| 1777920795 | 18.89° C | 29% | 1012.6 hPa | 0 mm | - | 840 W/m² | - |
| 1777920491 | 18.89° C | 31% | 1012.6 hPa | 0 mm | - | 251 W/m² | - |
| 1777920187 | 18.89° C | 30% | 1013 hPa | 0 mm | - | 273 W/m² | - |
| 1777919883 | 18.89° C | 29% | 1013 hPa | 0 mm | - | 264 W/m² | - |
| 1777919580 | 19.44° C | 29% | 1012.9 hPa | 0 mm | - | 415 W/m² | - |
| 1777919278 | 18.89° C | 30% | 1013 hPa | 0 mm | - | 652 W/m² | - |
| 1777918975 | 18.89° C | 31% | 1012.8 hPa | 0 mm | - | 392 W/m² | - |
| 1777918673 | 18.89° C | 30% | 1013.2 hPa | 0 mm | - | 181 W/m² | - |
| 1777918370 | 19.44° C | 31% | 1013.1 hPa | 0 mm | - | 394 W/m² | - |
| 1777918069 | 19.44° C | 30% | 1013.2 hPa | 0 mm | - | 683 W/m² | - |
| 1777917767 | 18.33° C | 31% | 1013.1 hPa | 0 mm | - | 385 W/m² | - |
| 1777917464 | 19.44° C | 31% | 1013.3 hPa | 0 mm | - | 184 W/m² | - |
| 1777917161 | 17.78° C | 33% | 1013.2 hPa | 0 mm | - | 709 W/m² | - |
| 1777916859 | 17.78° C | 34% | 1013.3 hPa | 0 mm | - | 196 W/m² | - |
| 1777916557 | 17.78° C | 35% | 1013.2 hPa | 0 mm | - | 133 W/m² | - |
| 1777916253 | 17.78° C | 34% | 1013.3 hPa | 0 mm | - | 122 W/m² | - |
| 1777915950 | 18.33° C | 33% | 1013.1 hPa | 0 mm | - | 123 W/m² | - |
| 1777915647 | 18.33° C | 34% | 1013.1 hPa | 0 mm | - | 163 W/m² | - |
| 1777915343 | 20° C | 30% | 1013.1 hPa | 0 mm | - | 154 W/m² | - |
| 1777915040 | 18.33° C | 32% | 1013.3 hPa | 0 mm | - | 587 W/m² | - |
| 1777914737 | 18.89° C | 33% | 1013.3 hPa | 0 mm | - | 337 W/m² | - |
* Rain latest hour (hover to see other rain measurements)
** Current wind speed in m/s (hover to see current wind gust speed)